Time;durP1;ratioP1;P1;durP2;ratioP2;P2;SDS_P1;SDS_P2;PMS_P1;PMS_P2;Temp;Humidity;BMP_temperature;BMP_pressure;BME280_temperature;BME280_humidity;BME280_pressure;Samples;Min_cycle;Max_cycle;Signal;HPM_P1;HPM_P2
2022/10/07 00:01:41;;;;;;;14.32;2.00;;;;;;;;;;4988326;28;20050;-61
2022/10/07 00:04:06;;;;;;;14.05;2.55;;;;;;;;;;4978128;28;20037;-62
2022/10/07 00:06:32;;;;;;;7.05;2.47;;;;;;;;;;4988326;28;20060;-64
2022/10/07 00:08:58;;;;;;;9.57;2.50;;;;;;;;;;4986458;28;20547;-64
2022/10/07 00:11:28;;;;;;;5.90;2.10;;;;;;;;;;4988005;28;20915;-63
2022/10/07 00:13:59;;;;;;;14.02;2.22;;;;;;;;;;4984263;28;20076;-62
2022/10/07 00:16:29;;;;;;;13.63;2.45;;;;;;;;;;4984418;28;20050;-62
2022/10/07 00:18:57;;;;;;;12.45;2.05;;;;;;;;;;4990882;28;20110;-62
2022/10/07 00:21:24;;;;;;;10.27;2.17;;;;;;;;;;4989865;28;20034;-63
2022/10/07 00:23:50;;;;;;;11.88;2.38;;;;;;;;;;4985977;28;20057;-63
2022/10/07 00:26:18;;;;;;;8.73;2.67;;;;;;;;;;4988467;28;20429;-62
2022/10/07 00:28:45;;;;;;;7.05;2.22;;;;;;;;;;4982252;28;20454;-61
2022/10/07 00:31:17;;;;;;;6.40;2.30;;;;;;;;;;4988818;28;20039;-62
2022/10/07 00:33:43;;;;;;;7.38;2.33;;;;;;;;;;4990571;28;20026;-61
2022/10/07 00:36:12;;;;;;;9.77;2.80;;;;;;;;;;4989230;28;20189;-64
2022/10/07 00:38:39;;;;;;;9.73;2.08;;;;;;;;;;4982376;28;20106;-63
2022/10/07 00:41:05;;;;;;;8.43;2.20;;;;;;;;;;4988855;28;20153;-62
2022/10/07 00:43:31;;;;;;;7.03;2.05;;;;;;;;;;4986013;28;20045;-62
2022/10/07 00:46:04;;;;;;;11.13;2.30;;;;;;;;;;4986377;28;20037;-62
2022/10/07 00:48:31;;;;;;;9.27;2.50;;;;;;;;;;4982654;28;20088;-62
2022/10/07 00:50:59;;;;;;;6.50;1.92;;;;;;;;;;4986061;28;20140;-61
2022/10/07 00:53:28;;;;;;;10.50;2.00;;;;;;;;;;4988777;28;20625;-61
2022/10/07 00:55:56;;;;;;;4.93;2.08;;;;;;;;;;4988244;28;20073;-61
2022/10/07 00:58:23;;;;;;;6.72;2.47;;;;;;;;;;4988819;28;20073;-61
2022/10/07 01:00:49;;;;;;;7.68;2.38;;;;;;;;;;4983561;28;20033;-61
2022/10/07 01:03:14;;;;;;;7.68;2.30;;;;;;;;;;4993355;28;20046;-61
2022/10/07 01:05:40;;;;;;;6.38;1.90;;;;;;;;;;4985690;28;20042;-72
2022/10/07 01:08:05;;;;;;;6.63;2.30;;;;;;;;;;4986740;28;20042;-70
2022/10/07 01:10:42;;;;;;;8.25;1.77;;;;;;;;;;4990731;28;20033;-53
2022/10/07 01:13:24;;;;;;;5.57;1.83;;;;;;;;;;4989390;28;20104;-56
2022/10/07 01:16:11;;;;;;;9.00;1.83;;;;;;;;;;4988855;28;20038;-54
2022/10/07 01:18:52;;;;;;;10.30;2.00;;;;;;;;;;4983938;28;20450;-54
2022/10/07 01:22:02;;;;;;;7.15;2.63;;;;;;;;;;4988246;28;20104;-60
2022/10/07 01:24:39;;;;;;;6.13;1.95;;;;;;;;;;4980377;28;20068;-54
2022/10/07 01:27:13;;;;;;;4.85;2.00;;;;;;;;;;4981170;28;20100;-54
2022/10/07 01:29:54;;;;;;;11.55;2.55;;;;;;;;;;4986748;28;20046;-56
2022/10/07 01:32:22;;;;;;;5.70;2.10;;;;;;;;;;4994107;28;20060;-56
2022/10/07 01:34:51;;;;;;;8.60;2.30;;;;;;;;;;4990569;28;20054;-54
2022/10/07 01:37:19;;;;;;;8.70;2.85;;;;;;;;;;4988058;28;20045;-54
2022/10/07 01:39:55;;;;;;;9.05;2.97;;;;;;;;;;4988563;28;20062;-57
2022/10/07 01:42:22;;;;;;;6.00;2.25;;;;;;;;;;4988882;28;20053;-57
2022/10/07 01:44:51;;;;;;;11.07;2.58;;;;;;;;;;4986956;28;20047;-57
2022/10/07 01:47:17;;;;;;;7.53;2.40;;;;;;;;;;4988790;28;20370;-56
2022/10/07 01:49:42;;;;;;;7.97;2.40;;;;;;;;;;4991786;28;20046;-57
2022/10/07 01:52:41;;;;;;;5.57;2.25;;;;;;;;;;4987816;28;20057;-54
2022/10/07 01:55:16;;;;;;;9.98;1.98;;;;;;;;;;4986539;28;20026;-54
2022/10/07 01:57:47;;;;;;;8.63;2.20;;;;;;;;;;4987619;28;20687;-56
2022/10/07 02:00:14;;;;;;;8.57;3.42;;;;;;;;;;4985255;28;20050;-54
2022/10/07 02:02:58;;;;;;;3.70;1.60;;;;;;;;;;4983066;28;20034;-57
2022/10/07 02:06:00;;;;;;;6.65;2.00;;;;;;;;;;4981239;28;20054;-54
2022/10/07 02:08:59;;;;;;;6.45;1.70;;;;;;;;;;4982727;28;20062;-57
2022/10/07 02:11:32;;;;;;;8.45;1.92;;;;;;;;;;4981721;28;20054;-56
2022/10/07 02:14:00;;;;;;;5.88;1.90;;;;;;;;;;4986839;28;20172;-53
2022/10/07 02:17:09;;;;;;;7.20;2.20;;;;;;;;;;4982542;28;20050;-56
2022/10/07 02:19:39;;;;;;;5.30;1.80;;;;;;;;;;4976488;28;20053;-56
2022/10/07 02:22:07;;;;;;;6.18;2.17;;;;;;;;;;4986220;28;20406;-55
2022/10/07 02:24:35;;;;;;;7.20;1.83;;;;;;;;;;4985524;28;20044;-53
2022/10/07 02:27:06;;;;;;;10.68;1.90;;;;;;;;;;4988821;28;20057;-58
2022/10/07 02:29:35;;;;;;;5.25;1.77;;;;;;;;;;4989278;28;20042;-54
2022/10/07 02:32:05;;;;;;;9.30;2.35;;;;;;;;;;4989970;28;20046;-56
2022/10/07 02:34:32;;;;;;;6.60;1.73;;;;;;;;;;4991687;28;20065;-56
2022/10/07 02:37:06;;;;;;;7.03;2.05;;;;;;;;;;4989609;28;20042;-58
2022/10/07 02:39:32;;;;;;;9.27;1.92;;;;;;;;;;4991714;28;20030;-53
2022/10/07 02:42:08;;;;;;;6.28;1.80;;;;;;;;;;4986702;28;21474;-56
2022/10/07 02:44:49;;;;;;;5.47;2.00;;;;;;;;;;4985214;28;20104;-58
2022/10/07 02:47:27;;;;;;;8.05;2.40;;;;;;;;;;4992986;28;20074;-57
2022/10/07 02:49:56;;;;;;;7.05;1.90;;;;;;;;;;4988202;28;20122;-57
2022/10/07 02:52:23;;;;;;;9.50;2.28;;;;;;;;;;4984193;28;20104;-55
2022/10/07 02:54:55;;;;;;;35.35;2.45;;;;;;;;;;4984161;28;20038;-51
2022/10/07 02:57:21;;;;;;;11.77;2.33;;;;;;;;;;4984514;28;20410;-53
2022/10/07 02:59:48;;;;;;;16.70;2.10;;;;;;;;;;4986117;28;20039;-54
2022/10/07 03:02:25;;;;;;;12.57;1.98;;;;;;;;;;4991386;28;20053;-51
2022/10/07 03:04:50;;;;;;;32.47;2.55;;;;;;;;;;4982460;28;20074;-52
2022/10/07 03:07:16;;;;;;;22.70;2.17;;;;;;;;;;4992981;28;20070;-70
2022/10/07 03:09:42;;;;;;;4.95;1.80;;;;;;;;;;4990803;28;20041;-69
2022/10/07 03:12:07;;;;;;;5.90;1.60;;;;;;;;;;4980165;28;20105;-69
2022/10/07 03:14:34;;;;;;;5.60;1.77;;;;;;;;;;4985996;28;20052;-68
2022/10/07 03:17:03;;;;;;;4.43;1.88;;;;;;;;;;4984752;28;20058;-71
2022/10/07 03:19:28;;;;;;;5.18;1.67;;;;;;;;;;4984918;28;20054;-70
2022/10/07 03:21:54;;;;;;;8.27;1.95;;;;;;;;;;4987085;28;20130;-69
2022/10/07 03:24:19;;;;;;;9.27;2.00;;;;;;;;;;4990123;28;20022;-69
2022/10/07 03:26:45;;;;;;;6.80;2.08;;;;;;;;;;4994586;28;20042;-69
2022/10/07 03:29:10;;;;;;;6.05;2.08;;;;;;;;;;4995024;28;20042;-69
2022/10/07 03:31:36;;;;;;;8.57;2.25;;;;;;;;;;4999583;28;20046;-68
2022/10/07 03:34:01;;;;;;;7.10;2.00;;;;;;;;;;4993506;28;20053;-69
2022/10/07 03:36:26;;;;;;;8.98;2.40;;;;;;;;;;4999236;28;20615;-69
2022/10/07 03:38:54;;;;;;;6.70;2.13;;;;;;;;;;4989089;28;20490;-68
2022/10/07 03:41:20;;;;;;;9.73;3.03;;;;;;;;;;4995986;28;20433;-69
2022/10/07 03:43:45;;;;;;;7.00;1.90;;;;;;;;;;4993365;28;20046;-69
2022/10/07 03:46:10;;;;;;;7.72;2.00;;;;;;;;;;4991750;28;20034;-69
2022/10/07 03:48:36;;;;;;;10.07;2.08;;;;;;;;;;4990230;28;20109;-68
2022/10/07 03:51:01;;;;;;;9.25;2.40;;;;;;;;;;4987198;28;20124;-68
2022/10/07 03:53:28;;;;;;;6.90;1.92;;;;;;;;;;4990207;28;20110;-68
2022/10/07 03:55:54;;;;;;;6.40;1.83;;;;;;;;;;4988035;28;20119;-69
2022/10/07 03:58:19;;;;;;;4.88;2.20;;;;;;;;;;4984117;28;20054;-68
2022/10/07 04:00:45;;;;;;;6.15;2.33;;;;;;;;;;4985514;28;20080;-69
2022/10/07 04:03:12;;;;;;;7.72;2.08;;;;;;;;;;4977565;28;20042;-68
2022/10/07 04:05:38;;;;;;;9.38;2.63;;;;;;;;;;4983355;28;20418;-67
2022/10/07 04:08:03;;;;;;;6.55;2.38;;;;;;;;;;4983337;28;20053;-69
2022/10/07 04:10:29;;;;;;;10.73;2.42;;;;;;;;;;4984156;28;20056;-68
2022/10/07 04:12:55;;;;;;;6.63;2.50;;;;;;;;;;4985908;28;20046;-68
2022/10/07 04:15:21;;;;;;;11.20;2.90;;;;;;;;;;4980937;28;20035;-68
2022/10/07 04:17:48;;;;;;;10.90;3.30;;;;;;;;;;4981216;28;20125;-68
2022/10/07 04:20:15;;;;;;;7.85;2.50;;;;;;;;;;4986778;28;20130;-68
2022/10/07 04:22:40;;;;;;;9.85;2.67;;;;;;;;;;4991618;28;20089;-68
2022/10/07 04:27:55;;;;;;;9.20;2.60;;;;;;;;;;4993260;28;20630;-68
2022/10/07 04:30:21;;;;;;;11.00;2.88;;;;;;;;;;4986770;28;20161;-67
2022/10/07 04:32:49;;;;;;;9.85;3.05;;;;;;;;;;4989774;28;20064;-66
2022/10/07 04:35:17;;;;;;;10.27;3.05;;;;;;;;;;4985552;28;20051;-66
2022/10/07 04:37:42;;;;;;;8.05;2.85;;;;;;;;;;4991259;28;20443;-68
2022/10/07 04:40:09;;;;;;;10.90;3.33;;;;;;;;;;4985641;28;20042;-69
2022/10/07 04:45:18;;;;;;;12.32;3.22;;;;;;;;;;4990459;28;20057;-69
2022/10/07 04:47:44;;;;;;;10.00;3.15;;;;;;;;;;4997182;28;20364;-69
2022/10/07 04:50:11;;;;;;;7.95;2.70;;;;;;;;;;4985190;28;20073;-69
2022/10/07 04:52:41;;;;;;;6.97;3.08;;;;;;;;;;4988200;28;20058;-68
2022/10/07 04:55:07;;;;;;;9.27;3.28;;;;;;;;;;4988562;28;20038;-67
2022/10/07 04:57:32;;;;;;;6.13;2.72;;;;;;;;;;4995029;28;20069;-69
2022/10/07 04:59:58;;;;;;;12.27;3.45;;;;;;;;;;4989304;28;20066;-70
2022/10/07 05:02:23;;;;;;;8.13;2.70;;;;;;;;;;4989529;28;20046;-70
2022/10/07 05:04:49;;;;;;;6.10;2.83;;;;;;;;;;4985722;28;20518;-69
2022/10/07 05:07:17;;;;;;;10.32;2.72;;;;;;;;;;4984256;28;20111;-69
2022/10/07 05:09:42;;;;;;;8.30;3.00;;;;;;;;;;4982657;28;20040;-69
2022/10/07 05:12:08;;;;;;;15.45;3.20;;;;;;;;;;4989797;28;20047;-69
2022/10/07 05:14:33;;;;;;;11.52;3.40;;;;;;;;;;4984947;28;20494;-66
2022/10/07 05:16:59;;;;;;;13.38;3.70;;;;;;;;;;4988185;28;20053;-66
2022/10/07 05:19:24;;;;;;;16.90;3.90;;;;;;;;;;4987219;28;20050;-66
2022/10/07 05:21:50;;;;;;;13.23;3.92;;;;;;;;;;5000816;28;20536;-65
2022/10/07 05:24:15;;;;;;;25.10;4.05;;;;;;;;;;4996626;28;20173;-67
2022/10/07 05:26:41;;;;;;;17.05;3.50;;;;;;;;;;4995937;28;20081;-66
2022/10/07 05:29:07;;;;;;;14.18;4.15;;;;;;;;;;4997721;28;20045;-66
2022/10/07 05:31:33;;;;;;;19.38;3.35;;;;;;;;;;4991991;28;20408;-67
2022/10/07 05:33:59;;;;;;;12.38;2.90;;;;;;;;;;4992298;28;20026;-66
2022/10/07 05:36:24;;;;;;;16.25;3.00;;;;;;;;;;5001528;28;20113;-66
2022/10/07 05:38:52;;;;;;;15.10;2.78;;;;;;;;;;4999177;28;20112;-66
2022/10/07 05:41:18;;;;;;;7.75;2.92;;;;;;;;;;5000338;28;21373;-66
2022/10/07 05:43:46;;;;;;;7.68;2.88;;;;;;;;;;4993027;28;20392;-66
2022/10/07 05:46:14;;;;;;;11.18;3.22;;;;;;;;;;4997172;28;20042;-67
2022/10/07 05:48:39;;;;;;;10.10;2.80;;;;;;;;;;4999630;28;20109;-67
2022/10/07 05:51:06;;;;;;;12.00;2.53;;;;;;;;;;4996424;28;20124;-66
2022/10/07 05:53:33;;;;;;;6.53;2.53;;;;;;;;;;4996674;28;20056;-67
2022/10/07 05:56:03;;;;;;;11.00;3.08;;;;;;;;;;4998231;28;20046;-66
2022/10/07 05:58:28;;;;;;;7.25;2.95;;;;;;;;;;5001408;28;20404;-66
2022/10/07 06:00:56;;;;;;;9.60;3.40;;;;;;;;;;4997470;28;20026;-65
2022/10/07 06:03:24;;;;;;;13.15;3.35;;;;;;;;;;4999868;28;20496;-65
2022/10/07 06:05:51;;;;;;;9.98;2.85;;;;;;;;;;5002313;28;20512;-68
2022/10/07 06:08:18;;;;;;;9.55;2.33;;;;;;;;;;4992424;28;20047;-68
2022/10/07 06:13:28;;;;;;;10.55;2.55;;;;;;;;;;4999846;28;20083;-64
2022/10/07 06:16:02;;;;;;;6.82;2.80;;;;;;;;;;4993998;28;20529;-65
2022/10/07 06:18:28;;;;;;;11.70;3.10;;;;;;;;;;4998815;28;20061;-64
2022/10/07 06:20:56;;;;;;;17.20;3.78;;;;;;;;;;4996176;28;20132;-67
2022/10/07 06:23:21;;;;;;;14.43;3.58;;;;;;;;;;4997629;28;20397;-66
2022/10/07 06:25:58;;;;;;;15.20;3.72;;;;;;;;;;4995883;28;20152;-67
2022/10/07 06:28:24;;;;;;;80.35;4.22;;;;;;;;;;4993451;28;20192;-67
2022/10/07 06:30:50;;;;;;;41.25;3.03;;;;;;;;;;4997852;28;20502;-67
2022/10/07 06:33:16;;;;;;;89.90;4.13;;;;;;;;;;4992675;28;20077;-67
2022/10/07 06:35:42;;;;;;;48.83;3.65;;;;;;;;;;4998722;28;20050;-67
2022/10/07 06:38:07;;;;;;;8.27;2.63;;;;;;;;;;4996207;28;20392;-68
2022/10/07 06:40:32;;;;;;;59.75;2.72;;;;;;;;;;4994715;28;20169;-67
2022/10/07 06:42:58;;;;;;;13.43;2.63;;;;;;;;;;4994074;28;20030;-66
2022/10/07 06:45:24;;;;;;;16.17;2.92;;;;;;;;;;4988444;28;20143;-66
2022/10/07 06:47:51;;;;;;;29.70;2.50;;;;;;;;;;4996246;28;20050;-66
2022/10/07 06:50:17;;;;;;;10.02;2.30;;;;;;;;;;4996947;28;20129;-66
2022/10/07 06:52:42;;;;;;;14.88;2.83;;;;;;;;;;4988550;28;20174;-67
2022/10/07 06:55:08;;;;;;;14.07;2.53;;;;;;;;;;4993387;28;20593;-67
2022/10/07 06:57:33;;;;;;;12.50;2.05;;;;;;;;;;4987631;28;20042;-68
2022/10/07 07:00:00;;;;;;;11.80;2.00;;;;;;;;;;4998437;28;20038;-67
2022/10/07 07:02:29;;;;;;;11.23;2.00;;;;;;;;;;4988508;28;20042;-67
2022/10/07 07:04:56;;;;;;;5.75;1.88;;;;;;;;;;4992395;28;20074;-67
2022/10/07 07:07:23;;;;;;;17.10;2.47;;;;;;;;;;4990221;28;20054;-67
2022/10/07 07:09:49;;;;;;;32.55;2.88;;;;;;;;;;4991469;28;20471;-67
2022/10/07 07:12:14;;;;;;;12.55;2.30;;;;;;;;;;4995311;28;20047;-67
2022/10/07 07:14:40;;;;;;;9.90;2.10;;;;;;;;;;4990488;28;20061;-67
2022/10/07 07:17:05;;;;;;;4.97;2.08;;;;;;;;;;4992122;28;20046;-66
2022/10/07 07:19:31;;;;;;;4.32;2.25;;;;;;;;;;4988131;28;20069;-66
2022/10/07 07:21:56;;;;;;;7.28;2.28;;;;;;;;;;4985654;28;20034;-66
2022/10/07 07:24:22;;;;;;;18.10;3.05;;;;;;;;;;4993332;28;20126;-67
2022/10/07 07:26:47;;;;;;;10.82;2.25;;;;;;;;;;4998396;28;20054;-66
2022/10/07 07:29:16;;;;;;;6.18;2.40;;;;;;;;;;4989095;28;20501;-66
2022/10/07 07:31:41;;;;;;;22.75;2.53;;;;;;;;;;4994660;28;20038;-66
2022/10/07 07:34:10;;;;;;;17.67;2.80;;;;;;;;;;4992194;28;20037;-66
2022/10/07 07:36:36;;;;;;;33.40;2.70;;;;;;;;;;4986246;28;20026;-67
2022/10/07 07:39:05;;;;;;;7.82;2.47;;;;;;;;;;4989671;28;20097;-67
2022/10/07 07:41:33;;;;;;;10.13;2.70;;;;;;;;;;4986701;28;20038;-66
2022/10/07 07:44:02;;;;;;;22.02;3.40;;;;;;;;;;4981275;28;20046;-66
2022/10/07 07:46:33;;;;;;;7.63;3.03;;;;;;;;;;4983603;28;20058;-66
2022/10/07 07:48:59;;;;;;;14.90;2.80;;;;;;;;;;4981726;28;20026;-66
2022/10/07 07:51:25;;;;;;;16.13;3.30;;;;;;;;;;4988625;28;20327;-67
2022/10/07 07:53:51;;;;;;;12.27;3.72;;;;;;;;;;4983440;28;20472;-67
2022/10/07 07:56:18;;;;;;;19.33;3.00;;;;;;;;;;4987996;28;20046;-66
2022/10/07 07:58:43;;;;;;;11.95;3.17;;;;;;;;;;4989578;28;20042;-66
2022/10/07 08:01:12;;;;;;;13.50;3.30;;;;;;;;;;4990776;28;20042;-66
2022/10/07 08:03:40;;;;;;;6.32;3.47;;;;;;;;;;4988211;28;20437;-66
2022/10/07 08:06:07;;;;;;;8.00;3.60;;;;;;;;;;4992110;28;20057;-65
2022/10/07 08:08:33;;;;;;;9.25;3.45;;;;;;;;;;4991730;28;20046;-65
2022/10/07 08:11:08;;;;;;;6.72;3.40;;;;;;;;;;4988264;28;20039;-65
2022/10/07 08:13:34;;;;;;;5.97;3.00;;;;;;;;;;4993316;28;20077;-65
2022/10/07 08:15:59;;;;;;;7.28;3.25;;;;;;;;;;4988395;28;20136;-65
2022/10/07 08:18:25;;;;;;;7.15;3.63;;;;;;;;;;4991099;28;20186;-65
2022/10/07 08:20:58;;;;;;;8.38;3.20;;;;;;;;;;4990988;28;20049;-65
2022/10/07 08:23:25;;;;;;;11.15;3.70;;;;;;;;;;4988233;28;20046;-65
2022/10/07 08:25:56;;;;;;;9.77;5.22;;;;;;;;;;4989951;28;20042;-65
2022/10/07 08:28:23;;;;;;;9.48;3.42;;;;;;;;;;4992016;28;20051;-65
2022/10/07 08:30:49;;;;;;;6.50;3.38;;;;;;;;;;4985743;28;20038;-65
2022/10/07 08:33:17;;;;;;;9.25;3.35;;;;;;;;;;4989901;28;20525;-65
2022/10/07 08:35:47;;;;;;;11.48;4.97;;;;;;;;;;4988724;28;20053;-65
2022/10/07 08:38:14;;;;;;;8.02;3.67;;;;;;;;;;4988118;28;20486;-65
2022/10/07 08:40:46;;;;;;;7.20;2.88;;;;;;;;;;4985640;28;20066;-65
2022/10/07 08:43:11;;;;;;;4.80;2.70;;;;;;;;;;4989896;28;20044;-65
2022/10/07 08:45:37;;;;;;;5.55;2.47;;;;;;;;;;4989877;28;20034;-68
2022/10/07 08:48:10;;;;;;;7.85;2.75;;;;;;;;;;4990330;28;20046;-66
2022/10/07 08:51:08;;;;;;;15.43;2.90;;;;;;;;;;4988146;28;20472;-65
2022/10/07 08:53:35;;;;;;;10.90;3.50;;;;;;;;;;4983728;28;20050;-65
2022/10/07 08:56:13;;;;;;;11.80;3.95;;;;;;;;;;4987376;28;20077;-66
2022/10/07 08:59:08;;;;;;;10.80;3.78;;;;;;;;;;4990044;28;20050;-65
2022/10/07 09:01:42;;;;;;;7.75;3.28;;;;;;;;;;4986863;28;20039;-66
2022/10/07 09:04:23;;;;;;;11.15;3.28;;;;;;;;;;4992882;28;20121;-64
2022/10/07 09:07:03;;;;;;;11.10;3.08;;;;;;;;;;4978294;28;20050;-65
2022/10/07 09:09:37;;;;;;;10.57;3.25;;;;;;;;;;4983212;28;20058;-66
2022/10/07 09:12:06;;;;;;;11.35;3.53;;;;;;;;;;4990708;28;20050;-64
2022/10/07 09:14:38;;;;;;;7.78;2.85;;;;;;;;;;4982324;28;20174;-64
2022/10/07 09:17:20;;;;;;;12.30;2.88;;;;;;;;;;4983128;28;20046;-65
2022/10/07 09:19:54;;;;;;;8.10;2.65;;;;;;;;;;4985212;28;20476;-65
2022/10/07 09:22:27;;;;;;;9.48;3.20;;;;;;;;;;4980746;28;20104;-65
2022/10/07 09:25:01;;;;;;;14.05;3.53;;;;;;;;;;4987898;28;20110;-65
2022/10/07 09:27:28;;;;;;;13.13;3.17;;;;;;;;;;4988273;28;20984;-64
2022/10/07 09:29:53;;;;;;;14.07;3.30;;;;;;;;;;4986548;28;20049;-64
2022/10/07 09:32:20;;;;;;;16.52;3.20;;;;;;;;;;4984286;28;20076;-64
2022/10/07 09:34:46;;;;;;;12.65;3.28;;;;;;;;;;4982423;28;20573;-65
2022/10/07 09:37:23;;;;;;;14.30;2.70;;;;;;;;;;4986425;28;20735;-66
2022/10/07 09:39:51;;;;;;;9.20;2.75;;;;;;;;;;4982545;28;21034;-65
2022/10/07 09:42:42;;;;;;;9.55;2.38;;;;;;;;;;4981765;28;20061;-62
2022/10/07 09:45:25;;;;;;;6.90;2.38;;;;;;;;;;4984091;28;20097;-63
2022/10/07 09:47:54;;;;;;;9.55;2.30;;;;;;;;;;4981037;28;20122;-62
2022/10/07 09:50:36;;;;;;;10.02;2.40;;;;;;;;;;4979366;28;20043;-63
2022/10/07 09:53:03;;;;;;;11.30;2.63;;;;;;;;;;4982436;28;20047;-62
2022/10/07 09:55:39;;;;;;;9.50;2.33;;;;;;;;;;4979661;28;20048;-62
2022/10/07 09:58:16;;;;;;;6.45;2.03;;;;;;;;;;4983790;28;20054;-63
2022/10/07 10:00:49;;;;;;;9.32;2.45;;;;;;;;;;4983786;28;20077;-63
2022/10/07 10:03:16;;;;;;;9.05;2.08;;;;;;;;;;4986929;28;20109;-63
2022/10/07 10:05:56;;;;;;;8.50;2.40;;;;;;;;;;4983421;28;20074;-65
2022/10/07 10:08:42;;;;;;;9.10;2.17;;;;;;;;;;4987569;28;20053;-65
2022/10/07 10:11:17;;;;;;;7.45;2.05;;;;;;;;;;4983637;28;20035;-64
2022/10/07 10:13:42;;;;;;;8.18;2.00;;;;;;;;;;4983373;28;20134;-62
2022/10/07 10:16:29;;;;;;;6.68;1.88;;;;;;;;;;4982911;28;20478;-65
2022/10/07 10:18:57;;;;;;;8.25;2.08;;;;;;;;;;4985270;28;20041;-62
2022/10/07 10:21:34;;;;;;;11.65;1.90;;;;;;;;;;4983126;28;20602;-64
2022/10/07 10:24:05;;;;;;;5.47;1.52;;;;;;;;;;4988983;28;20089;-64
2022/10/07 10:26:55;;;;;;;12.15;1.77;;;;;;;;;;4980064;28;20050;-63
2022/10/07 10:29:59;;;;;;;9.00;2.20;;;;;;;;;;4981789;28;20047;-64
2022/10/07 10:32:47;;;;;;;8.77;2.88;;;;;;;;;;4979210;28;20457;-64
2022/10/07 10:35:24;;;;;;;10.52;2.67;;;;;;;;;;4980741;28;20046;-64
2022/10/07 10:38:09;;;;;;;8.38;2.10;;;;;;;;;;4979945;28;20043;-62
2022/10/07 10:40:39;;;;;;;6.63;2.10;;;;;;;;;;4982428;28;20060;-64
2022/10/07 10:43:17;;;;;;;7.78;2.05;;;;;;;;;;5096625;27;1484343;-63
2022/10/07 10:45:59;;;;;;;8.07;2.15;;;;;;;;;;5076367;28;20036;-63
2022/10/07 10:48:39;;;;;;;7.40;2.00;;;;;;;;;;5098891;28;20059;-64
2022/10/07 10:51:33;;;;;;;8.15;2.40;;;;;;;;;;5097039;28;20107;-63
2022/10/07 10:54:25;;;;;;;11.05;2.10;;;;;;;;;;5098105;28;20119;-66
2022/10/07 10:57:21;;;;;;;6.20;1.80;;;;;;;;;;5098951;28;20040;-63
2022/10/07 11:00:07;;;;;;;6.60;1.77;;;;;;;;;;5098182;28;20101;-62
2022/10/07 11:02:40;;;;;;;5.85;1.60;;;;;;;;;;5097894;28;20040;-63
2022/10/07 11:05:22;;;;;;;7.97;1.88;;;;;;;;;;5099391;28;20128;-63
2022/10/07 11:07:54;;;;;;;7.45;1.75;;;;;;;;;;5096223;28;20089;-60
2022/10/07 11:10:34;;;;;;;5.18;1.85;;;;;;;;;;5094628;28;20399;-59
2022/10/07 11:13:14;;;;;;;10.25;2.00;;;;;;;;;;5101552;28;20112;-64
2022/10/07 11:15:46;;;;;;;11.85;2.17;;;;;;;;;;5100637;28;20028;-65
2022/10/07 11:18:26;;;;;;;6.88;1.80;;;;;;;;;;5096699;28;20048;-64
2022/10/07 11:20:53;;;;;;;6.70;1.90;;;;;;;;;;5093401;28;20499;-63
2022/10/07 11:23:38;;;;;;;4.07;1.40;;;;;;;;;;5097426;27;20051;-62
2022/10/07 11:26:16;;;;;;;8.55;2.65;;;;;;;;;;5095387;28;20048;-63
2022/10/07 11:28:43;;;;;;;13.85;2.60;;;;;;;;;;5092928;28;20522;-63
2022/10/07 11:31:51;;;;;;;11.20;2.75;;;;;;;;;;5091979;28;20048;-63
2022/10/07 11:34:22;;;;;;;10.00;2.17;;;;;;;;;;5060092;28;20435;-63
2022/10/07 11:37:06;;;;;;;13.13;2.60;;;;;;;;;;5096883;28;20114;-63
2022/10/07 11:39:36;;;;;;;8.32;2.65;;;;;;;;;;5096428;28;20048;-63
2022/10/07 11:42:37;;;;;;;9.20;1.80;;;;;;;;;;5100083;28;20482;-63
2022/10/07 11:45:07;;;;;;;7.07;1.83;;;;;;;;;;5083921;28;20443;-63
2022/10/07 11:47:40;;;;;;;7.22;1.65;;;;;;;;;;5096628;28;20478;-63
2022/10/07 11:50:14;;;;;;;6.13;1.75;;;;;;;;;;5099538;27;20048;-63
2022/10/07 11:52:49;;;;;;;5.53;2.05;;;;;;;;;;5097733;27;20552;-63
2022/10/07 11:55:26;;;;;;;7.30;1.30;;;;;;;;;;5076477;28;20051;-63
2022/10/07 11:57:55;;;;;;;6.85;1.70;;;;;;;;;;5084119;28;20423;-64
2022/10/07 12:00:24;;;;;;;7.90;1.90;;;;;;;;;;5087638;28;20052;-63
2022/10/07 12:02:50;;;;;;;12.13;1.50;;;;;;;;;;5079171;28;20051;-64
2022/10/07 12:05:34;;;;;;;5.75;1.88;;;;;;;;;;5084732;28;20032;-63
2022/10/07 12:08:22;;;;;;;8.00;1.50;;;;;;;;;;5085376;28;20048;-65
2022/10/07 12:10:52;;;;;;;4.65;1.30;;;;;;;;;;5071623;28;20052;-66
2022/10/07 12:13:19;;;;;;;7.43;1.42;;;;;;;;;;5080291;28;20448;-66
2022/10/07 12:15:46;;;;;;;4.93;1.77;;;;;;;;;;5081039;28;20033;-68
2022/10/07 12:18:16;;;;;;;8.23;1.90;;;;;;;;;;5078271;28;20071;-64
2022/10/07 12:20:50;;;;;;;6.57;1.30;;;;;;;;;;5077769;28;20182;-65
2022/10/07 12:23:21;;;;;;;9.75;2.03;;;;;;;;;;5080446;28;20162;-65
2022/10/07 12:25:58;;;;;;;10.13;2.30;;;;;;;;;;5083857;28;20803;-65
2022/10/07 12:28:40;;;;;;;6.65;1.50;;;;;;;;;;5083267;28;20055;-65
2022/10/07 12:31:12;;;;;;;5.60;1.40;;;;;;;;;;5082377;28;20051;-65
2022/10/07 12:33:43;;;;;;;15.25;1.73;;;;;;;;;;5084692;28;20025;-65
2022/10/07 12:36:17;;;;;;;6.63;1.45;;;;;;;;;;5080809;28;20068;-65
2022/10/07 12:38:45;;;;;;;10.00;1.80;;;;;;;;;;5084454;28;20127;-65
2022/10/07 12:41:10;;;;;;;10.60;1.90;;;;;;;;;;5083781;28;20040;-64
2022/10/07 12:43:35;;;;;;;7.13;1.80;;;;;;;;;;5080182;28;20604;-65
2022/10/07 12:46:08;;;;;;;4.97;1.67;;;;;;;;;;5078589;28;20505;-65
2022/10/07 12:48:41;;;;;;;7.13;1.48;;;;;;;;;;5082271;28;20040;-65
2022/10/07 12:51:18;;;;;;;7.20;1.15;;;;;;;;;;5083055;28;20107;-65
2022/10/07 12:53:46;;;;;;;6.30;1.40;;;;;;;;;;5079915;28;20044;-65
2022/10/07 12:56:19;;;;;;;5.90;1.45;;;;;;;;;;5079641;28;20055;-65
2022/10/07 13:01:56;;;;;;;10.77;1.75;;;;;;;;;;5079275;28;20055;-63
2022/10/07 13:04:37;;;;;;;8.30;1.60;;;;;;;;;;5083613;28;20469;-65
2022/10/07 13:07:51;;;;;;;8.52;1.45;;;;;;;;;;5079061;28;20040;-52
2022/10/07 13:11:00;;;;;;;8.25;1.52;;;;;;;;;;5064751;28;20052;-56
2022/10/07 13:13:49;;;;;;;7.50;1.67;;;;;;;;;;5079943;28;20060;-68
2022/10/07 13:16:25;;;;;;;6.30;1.40;;;;;;;;;;5077738;28;20067;-69
2022/10/07 13:18:59;;;;;;;7.50;1.48;;;;;;;;;;5076890;28;20028;-68
2022/10/07 13:21:35;;;;;;;8.20;1.98;;;;;;;;;;5073751;28;20040;-69
2022/10/07 13:24:00;;;;;;;6.88;1.77;;;;;;;;;;5078816;28;20135;-68
2022/10/07 13:26:26;;;;;;;6.50;1.75;;;;;;;;;;5081854;28;20123;-69
2022/10/07 13:28:54;;;;;;;6.07;1.77;;;;;;;;;;5076707;28;20074;-68
2022/10/07 13:31:32;;;;;;;6.10;1.40;;;;;;;;;;5080233;28;20490;-69
2022/10/07 13:34:00;;;;;;;6.53;1.40;;;;;;;;;;5080571;28;20081;-68
2022/10/07 13:36:28;;;;;;;6.93;1.35;;;;;;;;;;5082899;28;20045;-69
2022/10/07 13:39:11;;;;;;;8.40;1.75;;;;;;;;;;5082116;28;20544;-69
2022/10/07 13:41:41;;;;;;;7.03;1.50;;;;;;;;;;5078285;28;20972;-69
2022/10/07 13:44:10;;;;;;;5.22;1.38;;;;;;;;;;5082051;28;20448;-69
2022/10/07 13:46:35;;;;;;;13.02;2.25;;;;;;;;;;5081362;28;20044;-69
2022/10/07 13:49:01;;;;;;;7.75;1.30;;;;;;;;;;5078436;28;20032;-69
2022/10/07 13:51:36;;;;;;;6.45;1.30;;;;;;;;;;5079845;28;20039;-70
2022/10/07 13:54:04;;;;;;;6.60;1.33;;;;;;;;;;5081838;28;20495;-70
2022/10/07 13:56:34;;;;;;;5.60;1.27;;;;;;;;;;5078632;28;20040;-69
2022/10/07 13:59:02;;;;;;;10.63;1.50;;;;;;;;;;5081810;28;20505;-69
2022/10/07 14:01:30;;;;;;;7.70;1.33;;;;;;;;;;5081912;28;20074;-70
2022/10/07 14:04:14;;;;;;;5.85;1.45;;;;;;;;;;5081900;28;20055;-70
2022/10/07 14:06:55;;;;;;;8.45;1.33;;;;;;;;;;5082472;28;20460;-61
2022/10/07 14:09:56;;;;;;;6.82;1.58;;;;;;;;;;5079683;28;20044;-63
2022/10/07 14:12:37;;;;;;;4.13;1.42;;;;;;;;;;5084634;28;20138;-61
2022/10/07 14:15:24;;;;;;;4.40;1.10;;;;;;;;;;5080429;28;20117;-59
2022/10/07 14:17:55;;;;;;;4.63;1.15;;;;;;;;;;5080270;28;20058;-59
2022/10/07 14:20:27;;;;;;;7.60;1.40;;;;;;;;;;5080102;28;20036;-60
2022/10/07 14:22:55;;;;;;;7.93;1.98;;;;;;;;;;5075555;28;20048;-60
2022/10/07 14:25:27;;;;;;;6.63;1.83;;;;;;;;;;5081783;28;20078;-61
2022/10/07 14:27:56;;;;;;;6.60;1.37;;;;;;;;;;5077782;28;20056;-61
2022/10/07 14:30:25;;;;;;;7.80;1.63;;;;;;;;;;5081283;28;20044;-59
2022/10/07 14:36:27;;;;;;;6.88;1.10;;;;;;;;;;5079341;28;20058;-59
2022/10/07 14:38:56;;;;;;;5.85;1.20;;;;;;;;;;5066272;28;20414;-59
2022/10/07 14:41:25;;;;;;;4.40;1.00;;;;;;;;;;5079038;28;20047;-60
2022/10/07 14:43:51;;;;;;;7.97;1.35;;;;;;;;;;5079623;28;20450;-59
2022/10/07 14:46:17;;;;;;;8.88;1.50;;;;;;;;;;5073892;28;20056;-59
2022/10/07 14:48:44;;;;;;;11.43;1.48;;;;;;;;;;5079698;28;20056;-58
2022/10/07 14:51:11;;;;;;;6.82;1.30;;;;;;;;;;5073698;28;20048;-58
2022/10/07 14:53:38;;;;;;;5.03;1.40;;;;;;;;;;5071848;28;20089;-59
2022/10/07 14:56:03;;;;;;;6.05;1.20;;;;;;;;;;5076964;28;20503;-59
2022/10/07 14:58:29;;;;;;;10.93;1.65;;;;;;;;;;5077185;28;20044;-55
2022/10/07 15:00:55;;;;;;;7.03;1.63;;;;;;;;;;5076627;28;20031;-56
2022/10/07 15:03:20;;;;;;;3.20;1.27;;;;;;;;;;5078817;28;20050;-58
2022/10/07 15:05:47;;;;;;;5.82;1.85;;;;;;;;;;5083872;28;20048;-59
2022/10/07 15:08:13;;;;;;;11.18;2.50;;;;;;;;;;5079923;28;20048;-59
2022/10/07 15:10:42;;;;;;;5.85;1.77;;;;;;;;;;5076454;28;20117;-60
2022/10/07 15:13:09;;;;;;;5.88;1.70;;;;;;;;;;5079808;28;20060;-60
2022/10/07 15:15:42;;;;;;;4.90;1.42;;;;;;;;;;5077681;28;20499;-59
2022/10/07 15:18:10;;;;;;;11.88;1.95;;;;;;;;;;5077070;28;20135;-60